sensor_id;sensor_type;location;lat;lon;timestamp;pressure;altitude;pressure_sealevel;temperature;humidity
57606;BME280;43430;48.204;11.556;2023-03-01T00:07:52;96548.13;;;0.12;100.00
57606;BME280;43430;48.204;11.556;2023-03-01T00:10:41;96552.63;;;0.10;100.00
57606;BME280;43430;48.204;11.556;2023-03-01T00:16:54;96547.88;;;0.05;100.00
57606;BME280;43430;48.204;11.556;2023-03-01T00:19:22;96543.78;;;0.03;100.00
57606;BME280;43430;48.204;11.556;2023-03-01T00:22:14;96539.72;;;0.00;100.00
57606;BME280;43430;48.204;11.556;2023-03-01T00:25:04;96543.69;;;-0.06;100.00
57606;BME280;43430;48.204;11.556;2023-03-01T00:27:35;96543.13;;;0.01;100.00
57606;BME280;43430;48.204;11.556;2023-03-01T00:30:28;96537.41;;;-0.03;100.00
57606;BME280;43430;48.204;11.556;2023-03-01T00:32:59;96538.50;;;-0.06;100.00
57606;BME280;43430;48.204;11.556;2023-03-01T00:35:24;96539.03;;;-0.02;100.00
57606;BME280;43430;48.204;11.556;2023-03-01T00:38:01;96529.19;;;0.02;100.00
57606;BME280;43430;48.204;11.556;2023-03-01T00:40:57;96530.16;;;0.01;100.00
57606;BME280;43430;48.204;11.556;2023-03-01T00:43:48;96520.72;;;-0.01;100.00
57606;BME280;43430;48.204;11.556;2023-03-01T00:46:34;96531.34;;;0.06;100.00
57606;BME280;43430;48.204;11.556;2023-03-01T00:49:00;96524.78;;;0.12;100.00
57606;BME280;43430;48.204;11.556;2023-03-01T00:57:32;96515.84;;;-0.04;100.00
57606;BME280;43430;48.204;11.556;2023-03-01T01:03:28;96511.34;;;-0.02;100.00
57606;BME280;43430;48.204;11.556;2023-03-01T01:08:42;96499.19;;;-0.01;100.00
57606;BME280;43430;48.204;11.556;2023-03-01T01:11:17;96494.13;;;0.07;100.00
57606;BME280;43430;48.204;11.556;2023-03-01T01:13:58;96491.28;;;0.01;100.00
57606;BME280;43430;48.204;11.556;2023-03-01T01:16:28;96491.56;;;-0.03;100.00
57606;BME280;43430;48.204;11.556;2023-03-01T01:18:56;96496.22;;;-0.06;100.00
57606;BME280;43430;48.204;11.556;2023-03-01T01:21:34;96488.28;;;-0.05;100.00
57606;BME280;43430;48.204;11.556;2023-03-01T01:24:11;96491.84;;;-0.06;100.00
57606;BME280;43430;48.204;11.556;2023-03-01T01:26:36;96477.59;;;0.08;100.00
57606;BME280;43430;48.204;11.556;2023-03-01T01:29:17;96472.84;;;0.04;100.00
57606;BME280;43430;48.204;11.556;2023-03-01T01:31:58;96472.16;;;0.02;100.00
57606;BME280;43430;48.204;11.556;2023-03-01T01:34:30;96474.78;;;-0.08;100.00
57606;BME280;43430;48.204;11.556;2023-03-01T01:37:08;96476.00;;;-0.03;100.00
57606;BME280;43430;48.204;11.556;2023-03-01T01:39:35;96474.94;;;-0.10;100.00
57606;BME280;43430;48.204;11.556;2023-03-01T01:42:01;96474.41;;;-0.13;100.00
57606;BME280;43430;48.204;11.556;2023-03-01T01:44:39;96475.22;;;-0.13;100.00
57606;BME280;43430;48.204;11.556;2023-03-01T01:47:14;96465.69;;;-0.12;100.00
57606;BME280;43430;48.204;11.556;2023-03-01T01:49:55;96466.50;;;-0.12;100.00
57606;BME280;43430;48.204;11.556;2023-03-01T01:52:38;96463.97;;;-0.04;100.00
57606;BME280;43430;48.204;11.556;2023-03-01T01:55:09;96463.16;;;-0.04;100.00
57606;BME280;43430;48.204;11.556;2023-03-01T01:57:46;96452.84;;;-0.14;100.00
57606;BME280;43430;48.204;11.556;2023-03-01T02:03:53;96446.03;;;-0.15;100.00
57606;BME280;43430;48.204;11.556;2023-03-01T02:10:03;96446.50;;;-0.29;100.00
57606;BME280;43430;48.204;11.556;2023-03-01T02:12:43;96456.72;;;-0.28;100.00
57606;BME280;43430;48.204;11.556;2023-03-01T02:15:21;96447.84;;;-0.25;100.00
57606;BME280;43430;48.204;11.556;2023-03-01T02:18:23;96453.19;;;-0.27;100.00
57606;BME280;43430;48.204;11.556;2023-03-01T02:30:13;96442.25;;;-0.20;100.00
57606;BME280;43430;48.204;11.556;2023-03-01T02:38:35;96434.25;;;-0.27;100.00
57606;BME280;43430;48.204;11.556;2023-03-01T02:41:37;96434.13;;;-0.35;100.00
57606;BME280;43430;48.204;11.556;2023-03-01T02:44:16;96440.00;;;-0.33;100.00
57606;BME280;43430;48.204;11.556;2023-03-01T02:46:50;96429.91;;;-0.36;100.00
57606;BME280;43430;48.204;11.556;2023-03-01T02:49:37;96426.22;;;-0.34;100.00
57606;BME280;43430;48.204;11.556;2023-03-01T02:52:44;96425.41;;;-0.34;100.00
57606;BME280;43430;48.204;11.556;2023-03-01T02:55:34;96424.16;;;-0.30;100.00
57606;BME280;43430;48.204;11.556;2023-03-01T02:58:02;96424.56;;;-0.35;100.00
57606;BME280;43430;48.204;11.556;2023-03-01T03:00:36;96424.19;;;-0.40;100.00
57606;BME280;43430;48.204;11.556;2023-03-01T03:03:08;96422.13;;;-0.36;100.00
57606;BME280;43430;48.204;11.556;2023-03-01T03:05:34;96422.97;;;-0.45;100.00
57606;BME280;43430;48.204;11.556;2023-03-01T03:08:01;96424.31;;;-0.41;100.00
57606;BME280;43430;48.204;11.556;2023-03-01T03:10:29;96425.97;;;-0.40;100.00
57606;BME280;43430;48.204;11.556;2023-03-01T03:13:09;96426.50;;;-0.37;100.00
57606;BME280;43430;48.204;11.556;2023-03-01T03:15:35;96420.50;;;-0.37;100.00
57606;BME280;43430;48.204;11.556;2023-03-01T03:18:16;96426.53;;;-0.46;100.00
57606;BME280;43430;48.204;11.556;2023-03-01T03:20:44;96429.41;;;-0.50;100.00
57606;BME280;43430;48.204;11.556;2023-03-01T03:23:13;96434.22;;;-0.55;100.00
57606;BME280;43430;48.204;11.556;2023-03-01T03:25:51;96425.31;;;-0.52;100.00
57606;BME280;43430;48.204;11.556;2023-03-01T03:28:21;96422.72;;;-0.52;100.00
57606;BME280;43430;48.204;11.556;2023-03-01T03:30:50;96428.31;;;-0.47;100.00
57606;BME280;43430;48.204;11.556;2023-03-01T03:33:21;96409.38;;;-0.47;100.00
57606;BME280;43430;48.204;11.556;2023-03-01T03:35:48;96422.09;;;-0.64;100.00
57606;BME280;43430;48.204;11.556;2023-03-01T03:38:43;96417.06;;;-0.65;100.00
57606;BME280;43430;48.204;11.556;2023-03-01T03:41:12;96415.13;;;-0.63;100.00
57606;BME280;43430;48.204;11.556;2023-03-01T03:43:39;96411.03;;;-0.66;100.00
57606;BME280;43430;48.204;11.556;2023-03-01T03:46:05;96420.56;;;-0.57;100.00
57606;BME280;43430;48.204;11.556;2023-03-01T03:48:42;96405.47;;;-0.61;100.00
57606;BME280;43430;48.204;11.556;2023-03-01T03:51:18;96412.13;;;-0.59;100.00
57606;BME280;43430;48.204;11.556;2023-03-01T03:54:05;96413.50;;;-0.64;100.00
57606;BME280;43430;48.204;11.556;2023-03-01T03:56:42;96411.44;;;-0.61;100.00
57606;BME280;43430;48.204;11.556;2023-03-01T03:59:19;96403.69;;;-0.61;100.00
57606;BME280;43430;48.204;11.556;2023-03-01T04:01:44;96399.34;;;-0.70;100.00
57606;BME280;43430;48.204;11.556;2023-03-01T04:04:10;96402.63;;;-0.68;100.00
57606;BME280;43430;48.204;11.556;2023-03-01T04:06:47;96392.81;;;-0.74;100.00
57606;BME280;43430;48.204;11.556;2023-03-01T04:09:16;96395.78;;;-0.69;100.00
57606;BME280;43430;48.204;11.556;2023-03-01T04:12:10;96393.34;;;-0.70;100.00
57606;BME280;43430;48.204;11.556;2023-03-01T04:14:30;96396.13;;;-0.82;100.00
57606;BME280;43430;48.204;11.556;2023-03-01T04:17:01;96397.47;;;-0.87;100.00
57606;BME280;43430;48.204;11.556;2023-03-01T04:19:31;96391.75;;;-0.81;100.00
57606;BME280;43430;48.204;11.556;2023-03-01T04:22:04;96396.78;;;-0.80;100.00
57606;BME280;43430;48.204;11.556;2023-03-01T04:24:35;96401.69;;;-0.77;100.00
57606;BME280;43430;48.204;11.556;2023-03-01T04:27:03;96395.31;;;-0.82;100.00
57606;BME280;43430;48.204;11.556;2023-03-01T04:29:37;96394.25;;;-0.89;100.00
57606;BME280;43430;48.204;11.556;2023-03-01T04:32:03;96395.72;;;-0.97;100.00
57606;BME280;43430;48.204;11.556;2023-03-01T04:34:34;96396.03;;;-1.00;100.00
57606;BME280;43430;48.204;11.556;2023-03-01T04:37:05;96400.25;;;-1.18;100.00
57606;BME280;43430;48.204;11.556;2023-03-01T04:39:34;96406.78;;;-1.14;100.00
57606;BME280;43430;48.204;11.556;2023-03-01T04:42:14;96399.34;;;-1.17;100.00
57606;BME280;43430;48.204;11.556;2023-03-01T04:44:45;96397.94;;;-1.21;100.00
57606;BME280;43430;48.204;11.556;2023-03-01T04:47:14;96391.41;;;-1.25;100.00
57606;BME280;43430;48.204;11.556;2023-03-01T04:52:51;96398.09;;;-1.42;100.00
57606;BME280;43430;48.204;11.556;2023-03-01T04:55:19;96394.16;;;-1.46;100.00
57606;BME280;43430;48.204;11.556;2023-03-01T04:57:45;96392.38;;;-1.46;100.00
57606;BME280;43430;48.204;11.556;2023-03-01T05:00:19;96391.56;;;-1.46;100.00
57606;BME280;43430;48.204;11.556;2023-03-01T05:03:03;96390.22;;;-1.50;100.00
57606;BME280;43430;48.204;11.556;2023-03-01T05:05:54;96393.34;;;-1.47;100.00
57606;BME280;43430;48.204;11.556;2023-03-01T05:09:09;96389.94;;;-1.57;100.00
57606;BME280;43430;48.204;11.556;2023-03-01T05:11:35;96383.81;;;-1.56;100.00
57606;BME280;43430;48.204;11.556;2023-03-01T05:14:05;96382.19;;;-1.67;100.00
57606;BME280;43430;48.204;11.556;2023-03-01T05:19:29;96378.78;;;-1.67;100.00
57606;BME280;43430;48.204;11.556;2023-03-01T05:21:59;96382.44;;;-1.70;100.00
57606;BME280;43430;48.204;11.556;2023-03-01T05:24:33;96382.59;;;-1.71;100.00
57606;BME280;43430;48.204;11.556;2023-03-01T05:27:02;96384.75;;;-1.76;100.00
57606;BME280;43430;48.204;11.556;2023-03-01T05:29:37;96384.22;;;-1.70;100.00
57606;BME280;43430;48.204;11.556;2023-03-01T05:32:04;96382.31;;;-1.58;100.00
57606;BME280;43430;48.204;11.556;2023-03-01T05:34:53;96385.59;;;-1.66;100.00
57606;BME280;43430;48.204;11.556;2023-03-01T05:37:32;96386.94;;;-1.62;100.00
57606;BME280;43430;48.204;11.556;2023-03-01T05:40:03;96374.69;;;-1.60;100.00
57606;BME280;43430;48.204;11.556;2023-03-01T05:42:32;96380.84;;;-1.61;100.00
57606;BME280;43430;48.204;11.556;2023-03-01T05:45:04;96374.69;;;-1.60;100.00
57606;BME280;43430;48.204;11.556;2023-03-01T05:47:30;96371.69;;;-1.55;100.00
57606;BME280;43430;48.204;11.556;2023-03-01T05:50:05;96375.53;;;-1.50;100.00
57606;BME280;43430;48.204;11.556;2023-03-01T05:52:50;96374.97;;;-1.63;100.00
57606;BME280;43430;48.204;11.556;2023-03-01T05:55:54;96381.50;;;-1.59;100.00
57606;BME280;43430;48.204;11.556;2023-03-01T05:58:35;96376.88;;;-1.55;100.00
57606;BME280;43430;48.204;11.556;2023-03-01T06:08:02;96376.88;;;-1.55;100.00
57606;BME280;43430;48.204;11.556;2023-03-01T06:14:33;96380.84;;;-1.61;100.00
57606;BME280;43430;48.204;11.556;2023-03-01T06:19:54;96378.53;;;-1.64;100.00
57606;BME280;43430;48.204;11.556;2023-03-01T06:22:34;96387.47;;;-1.58;100.00
57606;BME280;43430;48.204;11.556;2023-03-01T06:25:03;96389.00;;;-1.56;100.00
57606;BME280;43430;48.204;11.556;2023-03-01T06:28:02;96388.88;;;-1.54;100.00
57606;BME280;43430;48.204;11.556;2023-03-01T06:30:31;96390.75;;;-1.56;100.00
57606;BME280;43430;48.204;11.556;2023-03-01T06:33:16;96399.47;;;-1.48;100.00
57606;BME280;43430;48.204;11.556;2023-03-01T06:35:41;96389.69;;;-1.44;100.00
57606;BME280;43430;48.204;11.556;2023-03-01T06:38:20;96400.69;;;-1.52;100.00
57606;BME280;43430;48.204;11.556;2023-03-01T06:47:32;96403.81;;;-1.48;100.00
57606;BME280;43430;48.204;11.556;2023-03-01T06:50:13;96395.13;;;-1.57;100.00
57606;BME280;43430;48.204;11.556;2023-03-01T06:53:14;96386.13;;;-1.53;100.00
57606;BME280;43430;48.204;11.556;2023-03-01T06:56:02;96395.66;;;-1.44;100.00
57606;BME280;43430;48.204;11.556;2023-03-01T06:58:41;96386.81;;;-1.51;100.00
57606;BME280;43430;48.204;11.556;2023-03-01T07:05:30;96396.75;;;-1.56;100.00
57606;BME280;43430;48.204;11.556;2023-03-01T07:08:17;96386.81;;;-1.60;100.00
57606;BME280;43430;48.204;11.556;2023-03-01T07:10:57;96384.78;;;-1.57;100.00
57606;BME280;43430;48.204;11.556;2023-03-01T07:14:04;96391.31;;;-1.53;100.00
57606;BME280;43430;48.204;11.556;2023-03-01T07:16:39;96379.59;;;-1.57;100.00
57606;BME280;43430;48.204;11.556;2023-03-01T07:19:16;96376.88;;;-1.55;100.00
57606;BME280;43430;48.204;11.556;2023-03-01T07:22:13;96380.28;;;-1.64;100.00
57606;BME280;43430;48.204;11.556;2023-03-01T07:25:18;96373.09;;;-1.61;100.00
57606;BME280;43430;48.204;11.556;2023-03-01T07:27:51;96374.28;;;-1.55;100.00
57606;BME280;43430;48.204;11.556;2023-03-01T07:30:20;96371.69;;;-1.46;100.00
57606;BME280;43430;48.204;11.556;2023-03-01T07:33:05;96371.31;;;-1.41;100.00
57606;BME280;43430;48.204;11.556;2023-03-01T07:35:33;96364.47;;;-1.32;100.00
57606;BME280;43430;48.204;11.556;2023-03-01T07:38:07;96355.09;;;-1.33;100.00
57606;BME280;43430;48.204;11.556;2023-03-01T07:40:41;96354.00;;;-1.40;100.00
57606;BME280;43430;48.204;11.556;2023-03-01T07:43:09;96358.06;;;-1.38;100.00
57606;BME280;43430;48.204;11.556;2023-03-01T07:45:35;96357.13;;;-1.27;100.00
57606;BME280;43430;48.204;11.556;2023-03-01T07:48:04;96355.34;;;-1.17;100.00
57606;BME280;43430;48.204;11.556;2023-03-01T07:50:32;96358.88;;;-1.18;100.00
57606;BME280;43430;48.204;11.556;2023-03-01T07:53:04;96354.13;;;-1.23;100.00
57606;BME280;43430;48.204;11.556;2023-03-01T07:55:29;96357.34;;;-1.11;100.00
57606;BME280;43430;48.204;11.556;2023-03-01T07:57:55;96365.13;;;-1.11;100.00
57606;BME280;43430;48.204;11.556;2023-03-01T08:00:20;96350.41;;;-1.10;100.00
57606;BME280;43430;48.204;11.556;2023-03-01T08:03:04;96352.31;;;-1.03;100.00
57606;BME280;43430;48.204;11.556;2023-03-01T08:05:44;96349.97;;;-0.96;100.00
57606;BME280;43430;48.204;11.556;2023-03-01T08:08:16;96340.84;;;-1.00;100.00
57606;BME280;43430;48.204;11.556;2023-03-01T08:10:44;96350.38;;;-1.01;100.00
57606;BME280;43430;48.204;11.556;2023-03-01T08:13:13;96343.69;;;-0.93;100.00
57606;BME280;43430;48.204;11.556;2023-03-01T08:15:38;96343.97;;;-0.97;100.00
57606;BME280;43430;48.204;11.556;2023-03-01T08:18:04;96338.78;;;-0.97;100.00
57606;BME280;43430;48.204;11.556;2023-03-01T08:20:37;96330.47;;;-0.90;100.00
57606;BME280;43430;48.204;11.556;2023-03-01T08:23:03;96338.72;;;-0.77;100.00
57606;BME280;43430;48.204;11.556;2023-03-01T08:25:31;96348.72;;;-0.82;100.00
57606;BME280;43430;48.204;11.556;2023-03-01T08:27:57;96341.75;;;-0.82;100.00
57606;BME280;43430;48.204;11.556;2023-03-01T08:30:22;96341.06;;;-0.84;100.00
57606;BME280;43430;48.204;11.556;2023-03-01T08:32:49;96330.44;;;-0.81;100.00
57606;BME280;43430;48.204;11.556;2023-03-01T08:35:16;96333.19;;;-0.82;100.00
57606;BME280;43430;48.204;11.556;2023-03-01T08:37:53;96330.94;;;-0.67;100.00
57606;BME280;43430;48.204;11.556;2023-03-01T08:40:30;96333.34;;;-0.66;100.00
57606;BME280;43430;48.204;11.556;2023-03-01T08:43:08;96324.66;;;-0.65;100.00
57606;BME280;43430;48.204;11.556;2023-03-01T08:45:36;96325.50;;;-0.46;100.00
57606;BME280;43430;48.204;11.556;2023-03-01T08:51:44;96318.31;;;-0.07;100.00
57606;BME280;43430;48.204;11.556;2023-03-01T09:01:09;96304.75;;;-0.19;100.00
57606;BME280;43430;48.204;11.556;2023-03-01T09:03:50;96306.78;;;-0.13;100.00
57606;BME280;43430;48.204;11.556;2023-03-01T09:06:19;96311.28;;;-0.15;100.00
57606;BME280;43430;48.204;11.556;2023-03-01T09:08:49;96311.28;;;-0.15;100.00
57606;BME280;43430;48.204;11.556;2023-03-01T09:11:20;96307.81;;;-0.06;100.00
57606;BME280;43430;48.204;11.556;2023-03-01T09:13:48;96315.88;;;-0.09;100.00
57606;BME280;43430;48.204;11.556;2023-03-01T09:16:18;96322.84;;;0.09;100.00
57606;BME280;43430;48.204;11.556;2023-03-01T09:18:53;96312.19;;;0.12;100.00
57606;BME280;43430;48.204;11.556;2023-03-01T09:21:24;96312.03;;;-0.05;100.00
57606;BME280;43430;48.204;11.556;2023-03-01T09:24:08;96307.88;;;0.03;100.00
57606;BME280;43430;48.204;11.556;2023-03-01T09:26:42;96305.66;;;0.08;100.00
57606;BME280;43430;48.204;11.556;2023-03-01T09:29:13;96315.34;;;0.06;100.00
57606;BME280;43430;48.204;11.556;2023-03-01T09:32:05;96309.28;;;0.15;100.00
57606;BME280;43430;48.204;11.556;2023-03-01T09:34:34;96307.28;;;0.27;100.00
57606;BME280;43430;48.204;11.556;2023-03-01T09:37:27;96292.25;;;0.12;100.00
57606;BME280;43430;48.204;11.556;2023-03-01T09:39:52;96303.88;;;0.08;100.00
57606;BME280;43430;48.204;11.556;2023-03-01T09:45:49;96296.84;;;0.18;100.00
57606;BME280;43430;48.204;11.556;2023-03-01T09:49:05;96302.09;;;0.27;100.00
57606;BME280;43430;48.204;11.556;2023-03-01T10:15:15;96262.47;;;0.86;100.00
57606;BME280;43430;48.204;11.556;2023-03-01T10:21:45;96273.44;;;0.54;100.00
57606;BME280;43430;48.204;11.556;2023-03-01T10:30:44;96260.88;;;0.93;100.00
57606;BME280;43430;48.204;11.556;2023-03-01T10:36:33;96253.28;;;1.00;100.00
57606;BME280;43430;48.204;11.556;2023-03-01T10:39:16;96258.97;;;1.04;100.00
57606;BME280;43430;48.204;11.556;2023-03-01T10:44:47;96253.41;;;1.33;100.00
57606;BME280;43430;48.204;11.556;2023-03-01T10:47:17;96250.28;;;1.21;100.00
57606;BME280;43430;48.204;11.556;2023-03-01T10:50:03;96248.00;;;1.18;100.00
57606;BME280;43430;48.204;11.556;2023-03-01T10:52:55;96236.38;;;1.38;100.00
57606;BME280;43430;48.204;11.556;2023-03-01T10:55:33;96232.31;;;1.44;100.00
57606;BME280;43430;48.204;11.556;2023-03-01T10:58:21;96228.00;;;1.69;100.00
57606;BME280;43430;48.204;11.556;2023-03-01T11:01:01;96212.41;;;1.69;100.00
57606;BME280;43430;48.204;11.556;2023-03-01T11:03:35;96207.38;;;1.67;100.00
57606;BME280;43430;48.204;11.556;2023-03-01T11:06:20;96209.66;;;1.71;100.00
57606;BME280;43430;48.204;11.556;2023-03-01T11:08:48;96205.13;;;1.73;100.00
57606;BME280;43430;48.204;11.556;2023-03-01T11:11:20;96192.56;;;1.60;100.00
57606;BME280;43430;48.204;11.556;2023-03-01T11:13:56;96191.31;;;1.72;100.00
57606;BME280;43430;48.204;11.556;2023-03-01T11:16:37;96181.72;;;1.81;100.00
57606;BME280;43430;48.204;11.556;2023-03-01T11:19:23;96180.41;;;1.77;100.00
57606;BME280;43430;48.204;11.556;2023-03-01T11:22:05;96171.66;;;1.94;100.00
57606;BME280;43430;48.204;11.556;2023-03-01T11:24:49;96163.19;;;1.92;100.00
57606;BME280;43430;48.204;11.556;2023-03-01T11:30:51;96154.72;;;1.98;100.00
57606;BME280;43430;48.204;11.556;2023-03-01T11:38:43;96151.75;;;2.34;100.00
57606;BME280;43430;48.204;11.556;2023-03-01T11:41:30;96144.09;;;2.41;100.00
57606;BME280;43430;48.204;11.556;2023-03-01T11:44:28;96134.16;;;2.52;100.00
57606;BME280;43430;48.204;11.556;2023-03-01T11:50:16;96123.44;;;2.87;100.00
57606;BME280;43430;48.204;11.556;2023-03-01T11:59:22;96112.91;;;2.72;100.00
57606;BME280;43430;48.204;11.556;2023-03-01T12:05:15;96121.34;;;2.82;100.00
57606;BME280;43430;48.204;11.556;2023-03-01T12:07:53;96120.25;;;2.76;100.00
57606;BME280;43430;48.204;11.556;2023-03-01T12:50:14;96052.97;;;3.57;100.00
57606;BME280;43430;48.204;11.556;2023-03-01T12:53:01;96053.16;;;3.55;100.00
57606;BME280;43430;48.204;11.556;2023-03-01T12:58:50;96064.63;;;3.84;100.00
57606;BME280;43430;48.204;11.556;2023-03-01T13:16:52;96064.72;;;3.91;100.00
57606;BME280;43430;48.204;11.556;2023-03-01T13:26:23;96058.19;;;4.24;100.00
57606;BME280;43430;48.204;11.556;2023-03-01T13:28:58;96060.53;;;4.19;100.00
57606;BME280;43430;48.204;11.556;2023-03-01T13:41:14;96041.53;;;3.96;100.00
57606;BME280;43430;48.204;11.556;2023-03-01T13:43:44;96038.75;;;4.12;100.00
57606;BME280;43430;48.204;11.556;2023-03-01T13:46:23;96029.03;;;4.21;100.00
57606;BME280;43430;48.204;11.556;2023-03-01T13:48:58;96044.06;;;4.34;100.00
57606;BME280;43430;48.204;11.556;2023-03-01T13:51:41;96030.75;;;4.28;100.00
57606;BME280;43430;48.204;11.556;2023-03-01T13:54:33;96036.25;;;4.34;100.00
57606;BME280;43430;48.204;11.556;2023-03-01T13:57:36;96036.84;;;4.50;100.00
57606;BME280;43430;48.204;11.556;2023-03-01T14:00:54;96036.03;;;4.50;100.00
57606;BME280;43430;48.204;11.556;2023-03-01T14:04:20;96033.59;;;4.48;100.00
57606;BME280;43430;48.204;11.556;2023-03-01T14:09:44;96026.22;;;4.52;100.00
57606;BME280;43430;48.204;11.556;2023-03-01T14:17:42;96015.00;;;4.73;100.00
57606;BME280;43430;48.204;11.556;2023-03-01T14:23:13;96013.59;;;4.92;100.00
57606;BME280;43430;48.204;11.556;2023-03-01T14:25:55;96011.75;;;5.07;100.00
57606;BME280;43430;48.204;11.556;2023-03-01T14:28:31;95998.25;;;5.04;100.00
57606;BME280;43430;48.204;11.556;2023-03-01T14:34:31;95995.28;;;5.07;100.00
57606;BME280;43430;48.204;11.556;2023-03-01T14:39:49;95988.91;;;5.16;100.00
57606;BME280;43430;48.204;11.556;2023-03-01T14:42:21;95993.38;;;5.22;100.00
57606;BME280;43430;48.204;11.556;2023-03-01T14:57:47;95969.19;;;5.13;100.00
57606;BME280;43430;48.204;11.556;2023-03-01T15:01:02;95974.06;;;5.16;100.00
57606;BME280;43430;48.204;11.556;2023-03-01T15:04:00;95961.34;;;5.13;100.00
57606;BME280;43430;48.204;11.556;2023-03-01T15:09:58;95964.88;;;5.06;100.00
57606;BME280;43430;48.204;11.556;2023-03-01T15:21:22;95964.56;;;5.37;100.00
57606;BME280;43430;48.204;11.556;2023-03-01T15:26:49;95961.44;;;5.48;100.00
57606;BME280;43430;48.204;11.556;2023-03-01T15:29:21;95963.78;;;5.43;100.00
57606;BME280;43430;48.204;11.556;2023-03-01T15:32:05;95957.34;;;5.39;100.00
57606;BME280;43430;48.204;11.556;2023-03-01T15:34:51;95963.56;;;5.38;100.00
57606;BME280;43430;48.204;11.556;2023-03-01T15:37:44;95961.13;;;5.36;100.00
57606;BME280;43430;48.204;11.556;2023-03-01T15:40:28;95961.38;;;5.41;100.00
57606;BME280;43430;48.204;11.556;2023-03-01T15:43:39;95964.44;;;5.45;100.00
57606;BME280;43430;48.204;11.556;2023-03-01T15:46:19;95955.94;;;5.43;100.00
57606;BME280;43430;48.204;11.556;2023-03-01T15:48:52;95960.38;;;5.42;100.00
57606;BME280;43430;48.204;11.556;2023-03-01T15:51:30;95951.25;;;5.32;100.00
57606;BME280;43430;48.204;11.556;2023-03-01T15:54:13;95951.72;;;5.42;100.00
57606;BME280;43430;48.204;11.556;2023-03-01T15:56:45;95952.91;;;5.39;100.00
57606;BME280;43430;48.204;11.556;2023-03-01T15:59:18;95949.34;;;5.47;100.00
57606;BME280;43430;48.204;11.556;2023-03-01T16:01:53;95947.72;;;5.46;100.00
57606;BME280;43430;48.204;11.556;2023-03-01T16:04:50;95950.13;;;5.41;100.00
57606;BME280;43430;48.204;11.556;2023-03-01T16:07:39;95949.13;;;5.42;100.00
57606;BME280;43430;48.204;11.556;2023-03-01T16:15:37;95942.94;;;5.50;100.00
57606;BME280;43430;48.204;11.556;2023-03-01T16:18:14;95948.47;;;5.40;100.00
57606;BME280;43430;48.204;11.556;2023-03-01T16:27:46;95945.78;;;5.27;100.00
57606;BME280;43430;48.204;11.556;2023-03-01T16:30:20;95951.03;;;5.27;100.00
57606;BME280;43430;48.204;11.556;2023-03-01T16:33:02;95945.53;;;5.21;100.00
57606;BME280;43430;48.204;11.556;2023-03-01T16:35:51;95951.88;;;5.12;100.00
57606;BME280;43430;48.204;11.556;2023-03-01T16:43:27;95949.47;;;5.11;100.00
57606;BME280;43430;48.204;11.556;2023-03-01T16:46:25;95944.56;;;5.01;100.00
57606;BME280;43430;48.204;11.556;2023-03-01T16:49:03;95949.59;;;5.03;100.00
57606;BME280;43430;48.204;11.556;2023-03-01T16:51:34;95958.41;;;5.02;100.00
57606;BME280;43430;48.204;11.556;2023-03-01T16:54:12;95953.50;;;4.92;100.00
57606;BME280;43430;48.204;11.556;2023-03-01T16:56:41;95956.69;;;4.87;100.00
57606;BME280;43430;48.204;11.556;2023-03-01T16:59:34;95966.06;;;4.82;100.00
57606;BME280;43430;48.204;11.556;2023-03-01T17:02:02;95963.22;;;4.76;100.00
57606;BME280;43430;48.204;11.556;2023-03-01T17:04:31;95975.03;;;4.72;100.00
57606;BME280;43430;48.204;11.556;2023-03-01T17:07:00;95980.19;;;4.66;100.00
57606;BME280;43430;48.204;11.556;2023-03-01T17:09:26;95980.34;;;4.64;100.00
57606;BME280;43430;48.204;11.556;2023-03-01T17:11:52;95982.06;;;4.57;100.00
57606;BME280;43430;48.204;11.556;2023-03-01T17:14:17;95984.59;;;4.50;100.00
57606;BME280;43430;48.204;11.556;2023-03-01T17:16:46;95987.78;;;4.46;100.00
57606;BME280;43430;48.204;11.556;2023-03-01T17:19:12;95988.78;;;4.45;100.00
57606;BME280;43430;48.204;11.556;2023-03-01T17:21:43;95988.94;;;4.43;100.00
57606;BME280;43430;48.204;11.556;2023-03-01T17:24:09;95993.47;;;4.35;100.00
57606;BME280;43430;48.204;11.556;2023-03-01T17:26:37;95992.91;;;4.39;100.00
57606;BME280;43430;48.204;11.556;2023-03-01T17:29:03;96000.16;;;4.37;100.00
57606;BME280;43430;48.204;11.556;2023-03-01T17:31:30;95999.31;;;4.37;100.00
57606;BME280;43430;48.204;11.556;2023-03-01T17:33:55;96008.06;;;4.29;100.00
57606;BME280;43430;48.204;11.556;2023-03-01T17:36:21;95998.63;;;4.28;100.00
57606;BME280;43430;48.204;11.556;2023-03-01T17:38:46;95997.38;;;4.24;100.00
57606;BME280;43430;48.204;11.556;2023-03-01T17:41:12;96005.63;;;4.27;100.00
57606;BME280;43430;48.204;11.556;2023-03-01T17:43:38;96007.81;;;4.24;100.00
57606;BME280;43430;48.204;11.556;2023-03-01T17:46:04;96006.81;;;4.10;100.00
57606;BME280;43430;48.204;11.556;2023-03-01T17:48:29;96001.22;;;3.98;100.00
57606;BME280;43430;48.204;11.556;2023-03-01T17:50:57;96008.44;;;3.96;100.00
57606;BME280;43430;48.204;11.556;2023-03-01T17:53:25;96002.78;;;3.93;100.00
57606;BME280;43430;48.204;11.556;2023-03-01T17:56:08;96016.41;;;3.80;100.00
57606;BME280;43430;48.204;11.556;2023-03-01T17:58:34;96029.47;;;3.80;100.00
57606;BME280;43430;48.204;11.556;2023-03-01T18:01:19;96021.34;;;3.75;100.00
57606;BME280;43430;48.204;11.556;2023-03-01T18:03:50;96025.50;;;3.69;100.00
57606;BME280;43430;48.204;11.556;2023-03-01T18:12:26;96021.75;;;3.49;100.00
57606;BME280;43430;48.204;11.556;2023-03-01T18:15:40;96026.22;;;3.40;100.00
57606;BME280;43430;48.204;11.556;2023-03-01T18:17:52;96029.34;;;3.36;100.00
57606;BME280;43430;48.204;11.556;2023-03-01T18:20:17;96027.22;;;3.39;100.00
57606;BME280;43430;48.204;11.556;2023-03-01T18:22:43;96019.94;;;3.35;100.00
57606;BME280;43430;48.204;11.556;2023-03-01T18:25:09;96027.28;;;3.31;100.00
57606;BME280;43430;48.204;11.556;2023-03-01T18:27:35;96028.78;;;3.25;100.00